createdAt,value
2022-10-11T00:03:43.911Z,23.19
2022-10-11T00:08:47.474Z,23.00
2022-10-11T00:13:51.006Z,22.99
2022-10-11T00:18:57.001Z,22.82
2022-10-11T00:24:00.535Z,22.54
2022-10-11T00:29:04.088Z,22.38
2022-10-11T00:34:09.390Z,22.29
2022-10-11T00:39:14.402Z,22.21
2022-10-11T00:44:20.534Z,22.14
2022-10-11T00:49:34.568Z,21.92
2022-10-11T00:54:46.893Z,21.70
2022-10-11T00:59:53.090Z,21.56
2022-10-11T01:05:25.348Z,21.32
2022-10-11T01:10:22.553Z,21.14
2022-10-11T01:15:33.964Z,21.00
2022-10-11T01:20:53.360Z,20.82
2022-10-11T01:26:18.448Z,20.80
2022-10-11T01:31:28.432Z,21.43
2022-10-11T01:36:37.539Z,21.74
2022-10-11T01:41:46.799Z,21.82
2022-10-11T01:46:52.929Z,21.84
2022-10-11T01:52:00.526Z,21.60
2022-10-11T01:57:46.426Z,20.81
2022-10-11T02:03:02.071Z,19.95
2022-10-11T02:08:14.879Z,19.81
2022-10-11T02:13:24.755Z,19.65
2022-10-11T02:18:34.921Z,19.55
2022-10-11T02:23:43.233Z,19.35
2022-10-11T02:28:48.820Z,19.05
2022-10-11T02:33:59.006Z,18.80
2022-10-11T02:39:08.633Z,18.97
2022-10-11T02:44:16.895Z,19.47
2022-10-11T02:49:22.682Z,19.42
2022-10-11T02:54:27.344Z,19.28
2022-10-11T02:59:30.882Z,19.29
2022-10-11T03:04:37.012Z,18.93
2022-10-11T03:09:40.539Z,18.88
2022-10-11T03:14:44.089Z,19.08
2022-10-11T03:19:49.318Z,18.99
2022-10-11T03:24:52.868Z,18.99
2022-10-11T03:29:56.420Z,18.84
2022-10-11T03:35:02.536Z,18.86
2022-10-11T03:40:07.636Z,18.82
2022-10-11T03:45:11.828Z,18.41
2022-10-11T03:50:17.453Z,18.40
2022-10-11T03:55:24.533Z,18.38
2022-10-11T04:00:28.310Z,18.46
2022-10-11T04:05:33.555Z,18.20
2022-10-11T04:10:37.079Z,18.29
2022-10-11T04:15:40.812Z,18.40
2022-10-11T04:20:46.901Z,18.22
2022-10-11T04:25:50.398Z,18.04
2022-10-11T04:30:53.939Z,18.03
2022-10-11T04:35:59.100Z,17.40
2022-10-11T04:41:08.119Z,16.77
2022-10-11T04:46:11.846Z,16.47
2022-10-11T04:51:17.423Z,16.25
2022-10-11T04:56:21.112Z,16.02
2022-10-11T05:01:24.634Z,15.81
2022-10-11T05:06:30.146Z,15.69
2022-10-11T05:11:33.703Z,15.54
2022-10-11T05:16:37.306Z,15.51
2022-10-11T05:21:42.460Z,15.46
2022-10-11T05:26:46.664Z,15.32
2022-10-11T05:31:50.211Z,15.13
2022-10-11T05:36:55.395Z,15.05
2022-10-11T05:41:58.928Z,14.89
2022-10-11T05:47:02.461Z,14.83
2022-10-11T05:52:08.641Z,14.77
2022-10-11T05:57:12.941Z,14.70
2022-10-11T06:02:16.496Z,14.59
2022-10-11T06:07:21.664Z,14.53
2022-10-11T06:12:25.191Z,14.46
2022-10-11T06:17:28.828Z,14.27
2022-10-11T06:22:34.940Z,14.19
2022-10-11T06:27:38.493Z,14.25
2022-10-11T06:32:42.051Z,14.11
2022-10-11T06:37:47.220Z,13.95
2022-10-11T06:42:50.736Z,13.83
2022-10-11T06:47:54.324Z,13.87
2022-10-11T06:52:59.582Z,13.87
2022-10-11T06:58:03.130Z,13.75
2022-10-11T07:03:06.750Z,13.74
2022-10-11T07:08:12.001Z,13.63
2022-10-11T07:13:17.382Z,13.50
2022-10-11T07:18:21.125Z,13.55
2022-10-11T07:23:26.811Z,13.42
2022-10-11T07:28:30.447Z,13.32
2022-10-11T07:33:34.230Z,13.30
2022-10-11T07:38:41.281Z,13.20
2022-10-11T07:43:44.985Z,13.10
2022-10-11T07:48:48.746Z,13.08
2022-10-11T07:53:56.454Z,13.09
2022-10-11T07:59:01.721Z,13.04
2022-10-11T08:04:05.474Z,12.99
2022-10-11T08:09:10.686Z,12.94
2022-10-11T08:14:14.257Z,12.82
2022-10-11T08:19:18.044Z,12.78
2022-10-11T08:24:23.217Z,12.73
2022-10-11T08:29:26.737Z,12.62
2022-10-11T08:34:30.265Z,12.54
2022-10-11T08:39:36.453Z,12.53
2022-10-11T08:45:10.700Z,12.52
2022-10-11T08:50:08.846Z,12.39
2022-10-11T08:55:21.933Z,12.30
2022-10-11T09:00:31.628Z,12.36
2022-10-11T09:05:37.328Z,12.30
2022-10-11T09:10:59.314Z,12.22
2022-10-11T09:16:10.728Z,12.14
2022-10-11T09:21:24.152Z,12.09
2022-10-11T09:26:34.912Z,12.03
2022-10-11T09:31:38.648Z,12.03
2022-10-11T09:36:47.601Z,11.95
2022-10-11T09:41:57.748Z,11.95
2022-10-11T09:47:01.359Z,11.88
2022-10-11T09:52:07.751Z,11.85
2022-10-11T09:57:28.193Z,11.79
2022-10-11T10:02:39.342Z,11.72
2022-10-11T10:08:04.114Z,11.66
2022-10-11T10:13:21.135Z,11.61
2022-10-11T10:18:30.694Z,11.56
2022-10-11T10:23:37.456Z,11.57
2022-10-11T10:29:00.073Z,11.55
2022-10-11T10:34:07.108Z,11.45
2022-10-11T10:39:17.037Z,11.35
2022-10-11T10:44:22.193Z,11.38
2022-10-11T10:55:01.063Z,11.24
2022-10-11T11:00:14.698Z,11.28
2022-10-11T11:05:29.481Z,11.18
2022-10-11T11:10:37.966Z,11.26
2022-10-11T11:15:52.557Z,11.16
2022-10-11T11:21:09.934Z,11.12
2022-10-11T11:26:22.812Z,11.04
2022-10-11T11:32:07.300Z,11.04
2022-10-11T11:37:22.914Z,10.95
2022-10-11T11:42:31.762Z,10.90
2022-10-11T11:47:41.178Z,10.87
2022-10-11T11:52:48.142Z,10.85
2022-10-11T11:58:01.036Z,10.87
2022-10-11T12:03:15.627Z,10.84
2022-10-11T12:08:27.077Z,10.74
2022-10-11T12:13:35.434Z,10.78
2022-10-11T12:18:54.922Z,10.82
2022-10-11T12:24:13.946Z,10.93
2022-10-11T12:29:45.827Z,10.92
2022-10-11T12:34:51.007Z,10.88
2022-10-11T12:39:55.514Z,10.94
2022-10-11T12:45:31.203Z,11.07
2022-10-11T12:50:45.375Z,11.14
2022-10-11T12:55:58.335Z,11.16
2022-10-11T13:01:22.941Z,11.16
2022-10-11T13:06:29.933Z,11.20
2022-10-11T13:11:36.107Z,11.17
2022-10-11T13:16:51.144Z,11.18
2022-10-11T13:21:58.905Z,11.24
2022-10-11T13:27:03.978Z,11.24
2022-10-11T13:32:12.483Z,11.27
2022-10-11T13:37:20.835Z,11.63
2022-10-11T13:42:29.334Z,11.75
2022-10-11T13:47:33.778Z,11.92
2022-10-11T13:52:51.143Z,11.82
2022-10-11T13:57:55.438Z,11.64
2022-10-11T14:03:02.045Z,11.62
2022-10-11T14:08:20.017Z,11.58
2022-10-11T14:13:26.417Z,11.62
2022-10-11T14:18:48.677Z,11.62
2022-10-11T14:23:55.461Z,11.63
2022-10-11T14:29:01.329Z,11.64
2022-10-11T14:34:05.415Z,11.68
2022-10-11T14:39:16.550Z,11.69
2022-10-11T14:44:20.637Z,11.67
2022-10-11T14:49:25.968Z,11.68
2022-10-11T14:54:32.345Z,11.68
2022-10-11T14:59:37.727Z,11.66
2022-10-11T15:04:41.261Z,11.68
2022-10-11T15:09:47.437Z,11.61
2022-10-11T15:14:50.231Z,11.47
2022-10-11T15:19:53.757Z,11.42
2022-10-11T15:24:59.044Z,11.45
2022-10-11T15:30:02.576Z,11.45
2022-10-11T15:35:06.760Z,11.49
2022-10-11T15:40:19.745Z,11.71
2022-10-11T15:45:24.069Z,11.83
2022-10-11T15:50:29.716Z,12.12
2022-10-11T15:55:36.934Z,12.32
2022-10-11T16:00:40.961Z,12.45
2022-10-11T16:05:44.757Z,12.81
2022-10-11T16:10:50.729Z,12.82
2022-10-11T16:15:54.359Z,12.97
2022-10-11T16:20:58.137Z,13.27
2022-10-11T16:26:05.601Z,13.41
2022-10-11T16:31:10.026Z,13.59
2022-10-11T16:36:14.522Z,13.57
2022-10-11T16:41:19.684Z,13.61
2022-10-11T16:46:23.479Z,13.82
2022-10-11T16:51:27.029Z,13.98
2022-10-11T16:56:34.962Z,14.32
2022-10-11T17:01:42.890Z,14.76
2022-10-11T17:06:46.491Z,15.01
2022-10-11T17:11:51.957Z,15.98
2022-10-11T17:16:55.511Z,16.73
2022-10-11T17:21:59.937Z,17.02
2022-10-11T17:27:05.998Z,17.57
2022-10-11T17:32:09.593Z,18.02
2022-10-11T17:37:13.148Z,18.13
2022-10-11T17:42:18.339Z,18.56
2022-10-11T17:47:21.888Z,18.92
2022-10-11T17:52:25.477Z,19.17
2022-10-11T17:57:30.683Z,19.38
2022-10-11T18:02:34.332Z,19.36
2022-10-11T18:07:37.882Z,19.71
2022-10-11T18:12:43.046Z,19.88
2022-10-11T18:17:46.624Z,20.22
2022-10-11T18:22:51.195Z,20.38
2022-10-11T18:27:56.364Z,20.40
2022-10-11T18:32:59.886Z,20.37
2022-10-11T18:38:03.558Z,20.57
2022-10-11T18:43:08.742Z,20.88
2022-10-11T18:48:12.998Z,21.08
2022-10-11T18:53:16.547Z,21.18
2022-10-11T18:58:21.713Z,21.22
2022-10-11T19:03:25.235Z,21.23
2022-10-11T19:08:29.296Z,21.53
2022-10-11T19:13:34.861Z,21.75
2022-10-11T19:18:43.911Z,21.89
2022-10-11T19:23:49.540Z,22.00
2022-10-11T19:28:58.579Z,21.96
2022-10-11T19:34:02.256Z,21.98
2022-10-11T19:39:06.763Z,22.37
2022-10-11T19:44:12.823Z,22.46
2022-10-11T19:49:16.677Z,22.65
2022-10-11T19:54:20.274Z,22.62
2022-10-11T19:59:25.435Z,22.52
2022-10-11T20:09:52.529Z,22.70
2022-10-11T20:14:57.864Z,22.80
2022-10-11T20:20:00.656Z,22.67
2022-10-11T20:25:04.338Z,22.81
2022-10-11T20:30:11.112Z,22.85
2022-10-11T20:35:14.756Z,23.05
2022-10-11T20:40:18.498Z,23.09
2022-10-11T20:45:23.654Z,23.17
2022-10-11T20:50:26.439Z,23.28
2022-10-11T20:55:29.965Z,23.01
2022-10-11T21:00:35.126Z,23.06
2022-10-11T21:05:37.907Z,23.09
2022-10-11T21:10:41.396Z,23.28
2022-10-11T21:15:46.598Z,23.30
2022-10-11T21:20:49.390Z,23.25
2022-10-11T21:25:52.909Z,23.09
2022-10-11T21:31:04.226Z,23.26
2022-10-11T21:36:09.598Z,23.28
2022-10-11T21:41:14.744Z,23.39
2022-10-11T21:46:20.014Z,23.37
2022-10-11T21:51:24.886Z,23.47
2022-10-11T21:56:28.813Z,23.49
2022-10-11T22:01:36.118Z,23.38
2022-10-11T22:06:39.754Z,23.40
2022-10-11T22:11:43.303Z,23.37
2022-10-11T22:16:48.546Z,23.43
2022-10-11T22:21:52.199Z,23.41
2022-10-11T22:26:55.841Z,23.27
2022-10-11T22:32:01.019Z,23.25
2022-10-11T22:37:03.801Z,23.02
2022-10-11T22:42:07.575Z,23.01
2022-10-11T22:47:12.736Z,23.01
2022-10-11T22:52:15.556Z,23.06
2022-10-11T22:57:19.075Z,23.06
2022-10-11T23:02:25.472Z,23.11
2022-10-11T23:07:28.998Z,23.10
2022-10-11T23:12:32.791Z,23.07
2022-10-11T23:17:38.471Z,23.02
2022-10-11T23:22:42.148Z,23.13
2022-10-11T23:27:45.686Z,23.04
2022-10-11T23:32:50.837Z,22.99
2022-10-11T23:37:53.749Z,22.88
2022-10-11T23:42:57.310Z,22.68
2022-10-11T23:48:02.483Z,22.50
2022-10-11T23:53:05.279Z,22.38
2022-10-11T23:58:08.803Z,22.14
